Plainville, GA

12:23 PM EST on December 21, 2014 (GMT -0500)
Cartersville | Change Station
CLOSE
Current Station
Airport
Location: Cartersville,
Elevation: 764 ft
Nearby Weather Stations

Elev 764 ft 34.12 °N, 84.85 °W | Updated 30 minutes ago

Overcast
Overcast
50 °F
Feels Like 50 °F
N
6
Wind Variable Wind from East

Today
High -- | Low -- °F
--% Chance of Precip.
Yesterday
High -- | Low -- °F
Precip. -- in
7:42 AM 5:33 PM
Waning Crescent, 0% visible
Pressure 30.18 in
Visibility 8.0 miles
Clouds Overcast 1400 ft
Dew Point 42 °F
Humidity 74%
Rainfall 0.00 in
Snow Depth Not available.
UV 1 out of 12
Pollen .10 out of 12
Air Quality Not available.
Flu Activity Not available.
METAR KVPC 211653Z AUTO 09005KT 8SM OVC014 10/06 A3019 RMK AO2 SLP220 T01000056

More Conditions Fewer Conditions

Pressure 30.18 in
Visibility 8.0 miles
Clouds Overcast 1400 ft
Dew Point 42 °F
Humidity 74%
Rainfall 0.00 in
Snow Depth Not available.
UV 1 out of 12
Pollen .10 out of 12
Air Quality Not available.
Flu Activity Not available.
METAR KVPC 211653Z AUTO 09005KT 8SM OVC014 10/06 A3019 RMK AO2 SLP220 T01000056

More Conditions Fewer Conditions

10-Day Weather Forecast

Almanac

Astronomy

Dec. 21, 2014 Rise Set
Actual Time
Civil Twilight
Nautical Twilight
Astronomical Twilight
Moon
Length of Visible Light
Length of Day
Tomorrow will be .
, % of the Moon is Illuminated

Today's Extremes

State Highs State Lows

Community

WunderPhotos

Upload Photos

1,779,436 photos uploaded!

WunderBlogs® & News

Nearby

Air Quality

  Air Quality AQ Index Pollutant
Not available.

Snow Depth

Station Depth Elevation

Earthquake Activity

City Distance Mag. Time & Date
Minimum magnitude displayed is 2.5.

Coastal Water Temperatures

Place Temperature

Nearby Weather Stations